createdAt,value
2023-02-22T00:00:34.716Z,101707.84
2023-02-22T00:03:01.248Z,101700.16
2023-02-22T00:05:28.584Z,101704.63
2023-02-22T00:07:58.694Z,101701.22
2023-02-22T00:10:25.295Z,101700.44
2023-02-22T00:12:53.414Z,101699.66
2023-02-22T00:15:22.719Z,101705.63
2023-02-22T00:17:49.316Z,101703.03
2023-02-22T00:20:19.892Z,101698.72
2023-02-22T00:22:49.490Z,101703.88
2023-02-22T00:25:19.865Z,101708.19
2023-02-22T00:27:52.683Z,101699.56
2023-02-22T00:30:26.975Z,101709.06
2023-02-22T00:32:55.978Z,101700.53
2023-02-22T00:35:27.178Z,101709.97
2023-02-22T00:37:56.972Z,101703.88
2023-02-22T00:40:27.077Z,101703.88
2023-02-22T00:42:53.900Z,101705.69
2023-02-22T00:45:23.349Z,101700.53
2023-02-22T00:47:50.588Z,101697.09
2023-02-22T00:50:18.610Z,101697.94
2023-02-22T00:52:45.697Z,101691.09
2023-02-22T00:55:26.886Z,101685.88
2023-02-22T00:57:54.216Z,101681.63
2023-02-22T01:00:28.031Z,101682.53
2023-02-22T01:02:55.971Z,101680.78
2023-02-22T01:05:25.918Z,101678.19
2023-02-22T01:07:53.321Z,101674.75
2023-02-22T01:10:21.778Z,101667.06
2023-02-22T01:12:49.958Z,101668.00
2023-02-22T01:15:21.790Z,101661.06
2023-02-22T01:17:49.824Z,101665.38
2023-02-22T01:20:16.771Z,101661.88
2023-02-22T01:22:47.175Z,101666.22
2023-02-22T01:25:19.470Z,101658.56
2023-02-22T01:27:45.930Z,101651.72
2023-02-22T01:30:15.086Z,101655.16
2023-02-22T01:32:42.996Z,101659.44
2023-02-22T01:35:13.716Z,101654.31
2023-02-22T01:37:41.305Z,101653.44
2023-02-22T01:40:10.150Z,101660.38
2023-02-22T01:42:37.163Z,101651.84
2023-02-22T01:45:32.627Z,101650.09
2023-02-22T01:48:05.557Z,101640.59
2023-02-22T01:50:35.488Z,101644.91
2023-02-22T01:53:03.221Z,101638.03
2023-02-22T01:55:30.613Z,101633.78
2023-02-22T01:57:57.603Z,101633.84
2023-02-22T02:00:27.580Z,101642.50
2023-02-22T02:03:00.072Z,101639.94
2023-02-22T02:05:28.052Z,101640.00
2023-02-22T02:07:54.470Z,101634.81
2023-02-22T02:10:21.575Z,101626.28
2023-02-22T02:12:50.647Z,101622.91
2023-02-22T02:15:34.923Z,101627.28
2023-02-22T02:18:04.778Z,101623.88
2023-02-22T02:20:58.769Z,101619.59
2023-02-22T02:23:47.488Z,101622.22
2023-02-22T02:26:32.419Z,101612.66
2023-02-22T02:29:22.248Z,101606.72
2023-02-22T02:32:06.119Z,101607.63
2023-02-22T02:34:58.243Z,101601.66
2023-02-22T02:37:36.829Z,101607.81
2023-02-22T02:40:22.206Z,101601.84
2023-02-22T02:43:05.115Z,101596.72
2023-02-22T02:45:49.554Z,101592.44
2023-02-22T02:48:18.945Z,101588.19
2023-02-22T02:50:48.735Z,101585.63
2023-02-22T02:53:21.136Z,101580.44
2023-02-22T02:55:47.842Z,101579.66
2023-02-22T02:58:20.153Z,101578.88
2023-02-22T03:00:49.892Z,101578.91
2023-02-22T03:03:34.784Z,101579.09
2023-02-22T03:06:34.546Z,101567.34
2023-02-22T03:09:39.101Z,101570.06
2023-02-22T03:12:20.837Z,101570.16
2023-02-22T03:15:09.197Z,101567.66
2023-02-22T03:17:53.406Z,101573.75
2023-02-22T03:20:32.109Z,101563.44
2023-02-22T03:23:19.191Z,101570.34
2023-02-22T03:25:53.631Z,101572.06
2023-02-22T03:28:26.315Z,101563.53
2023-02-22T03:31:05.980Z,101559.16
2023-02-22T03:33:48.863Z,101561.84
2023-02-22T03:36:39.105Z,101564.41
2023-02-22T03:39:10.918Z,101556.56
2023-02-22T03:41:39.121Z,101558.31
2023-02-22T03:44:11.792Z,101551.44
2023-02-22T03:46:40.915Z,101553.13
2023-02-22T03:49:51.325Z,101542.75
2023-02-22T03:52:18.910Z,101539.28
2023-02-22T03:54:45.853Z,101541.94
2023-02-22T03:57:18.889Z,101533.28
2023-02-22T03:59:46.228Z,101535.88
2023-02-22T04:02:12.666Z,101525.63
2023-02-22T04:04:39.641Z,101538.59
2023-02-22T04:07:06.101Z,101530.91
2023-02-22T04:09:32.806Z,101529.22
2023-02-22T04:11:59.239Z,101528.44
2023-02-22T04:14:25.942Z,101532.78
2023-02-22T04:16:52.873Z,101524.19
2023-02-22T04:19:19.385Z,101524.13
2023-02-22T04:21:45.961Z,101510.44
2023-02-22T04:24:12.631Z,101519.06
2023-02-22T04:26:39.062Z,101517.34
2023-02-22T04:29:05.485Z,101522.63
2023-02-22T04:31:33.750Z,101516.63
2023-02-22T04:34:02.400Z,101498.53
2023-02-22T04:36:31.762Z,101508.09
2023-02-22T04:38:59.203Z,101502.94
2023-02-22T04:41:25.778Z,101488.25
2023-02-22T04:43:52.421Z,101494.25
2023-02-22T04:46:19.856Z,101489.94
2023-02-22T04:48:46.304Z,101490.06
2023-02-22T04:51:13.100Z,101487.41
2023-02-22T04:53:39.635Z,101487.47
2023-02-22T04:56:06.415Z,101472.81
2023-02-22T04:58:32.880Z,101467.63
2023-02-22T05:01:00.953Z,101466.78
2023-02-22T05:03:27.451Z,101469.31
2023-02-22T05:05:54.025Z,101472.75
2023-02-22T05:08:20.510Z,101462.53
2023-02-22T05:10:46.936Z,101464.31
2023-02-22T05:13:13.409Z,101465.25
2023-02-22T05:15:39.856Z,101452.28
2023-02-22T05:18:06.286Z,101456.59
2023-02-22T05:20:35.433Z,101454.91
2023-02-22T05:23:02.850Z,101449.75
2023-02-22T05:25:29.734Z,101460.16
2023-02-22T05:27:59.437Z,101450.66
2023-02-22T05:30:28.747Z,101443.69
2023-02-22T05:32:55.566Z,101444.59
2023-02-22T05:35:23.402Z,101448.03
2023-02-22T05:37:50.841Z,101440.28
2023-02-22T05:40:23.138Z,101442.84
2023-02-22T05:42:50.775Z,101441.13
2023-02-22T05:45:19.517Z,101445.44
2023-02-22T05:47:46.594Z,101435.16
2023-02-22T05:50:13.986Z,101438.63
2023-02-22T05:52:41.963Z,101431.78
2023-02-22T05:55:10.268Z,101430.91
2023-02-22T05:57:36.800Z,101426.66
2023-02-22T06:00:06.869Z,101429.28
2023-02-22T06:02:34.017Z,101426.66
2023-02-22T06:05:00.780Z,101418.91
2023-02-22T06:07:27.294Z,101417.19
2023-02-22T06:09:53.870Z,101420.53
2023-02-22T06:12:20.603Z,101417.09
2023-02-22T06:14:47.068Z,101417.09
2023-02-22T06:17:15.306Z,101411.06
2023-02-22T06:19:41.917Z,101403.38
2023-02-22T06:22:15.863Z,101405.97
2023-02-22T06:24:42.294Z,101409.44
2023-02-22T06:27:08.873Z,101420.63
2023-02-22T06:29:35.282Z,101422.31
2023-02-22T06:32:02.068Z,101424.88
2023-02-22T06:34:28.555Z,101417.97
2023-02-22T06:36:54.989Z,101415.44
2023-02-22T06:39:21.412Z,101418.94
2023-02-22T06:41:48.201Z,101417.25
2023-02-22T06:44:15.311Z,101419.00
2023-02-22T06:46:49.301Z,101413.03
2023-02-22T06:49:15.745Z,101407.06
2023-02-22T06:51:42.313Z,101399.25
2023-02-22T06:54:09.764Z,101403.59
2023-02-22T06:56:36.202Z,101399.25
2023-02-22T06:59:02.962Z,101395.06
2023-02-22T07:01:29.841Z,101401.16
2023-02-22T07:03:56.646Z,101397.72
2023-02-22T07:06:23.650Z,101405.44
2023-02-22T07:08:50.158Z,101397.69
2023-02-22T07:11:17.615Z,101401.06
2023-02-22T07:13:44.284Z,101399.25
2023-02-22T07:16:10.871Z,101392.34
2023-02-22T07:18:37.448Z,101395.81
2023-02-22T07:21:04.564Z,101400.97
2023-02-22T07:23:31.013Z,101406.16
2023-02-22T07:26:00.654Z,101400.97
2023-02-22T07:28:27.193Z,101405.19
2023-02-22T07:30:53.674Z,101407.75
2023-02-22T07:33:20.160Z,101408.69
2023-02-22T07:35:48.934Z,101407.75
2023-02-22T07:38:17.374Z,101403.38
2023-02-22T07:40:45.040Z,101406.75
2023-02-22T07:43:19.942Z,101404.13
2023-02-22T07:45:48.132Z,101411.91
2023-02-22T07:48:17.760Z,101409.31
2023-02-22T07:50:44.929Z,101409.31
2023-02-22T07:53:18.295Z,101413.66
2023-02-22T07:55:45.078Z,101420.56
2023-02-22T07:58:15.865Z,101419.66
2023-02-22T08:00:44.123Z,101419.66
2023-02-22T08:03:13.468Z,101420.56
2023-02-22T08:05:42.241Z,101427.41
2023-02-22T08:08:08.822Z,101422.19
2023-02-22T08:10:36.091Z,101424.69
2023-02-22T08:13:03.513Z,101424.69
2023-02-22T08:15:38.328Z,101426.44
2023-02-22T08:18:10.316Z,101425.53
2023-02-22T08:20:38.450Z,101414.25
2023-02-22T08:23:06.220Z,101428.78
2023-02-22T08:25:33.088Z,101422.78
2023-02-22T08:28:01.929Z,101424.47
2023-02-22T08:30:30.791Z,101422.72
2023-02-22T08:32:58.392Z,101414.06
2023-02-22T08:35:25.618Z,101413.22
2023-02-22T08:37:54.042Z,101408.03
2023-02-22T08:40:23.306Z,101409.59
2023-02-22T08:42:49.805Z,101417.34
2023-02-22T08:45:16.998Z,101422.50
2023-02-22T08:47:43.693Z,101425.09
2023-02-22T08:50:16.792Z,101417.22
2023-02-22T08:52:43.371Z,101413.66
2023-02-22T08:55:09.917Z,101417.03
2023-02-22T08:57:36.344Z,101408.28
2023-02-22T09:00:05.144Z,101408.28
2023-02-22T09:02:31.600Z,101403.88
2023-02-22T09:04:58.063Z,101393.41
2023-02-22T09:07:24.697Z,101395.78
2023-02-22T09:09:51.145Z,101386.22
2023-02-22T09:12:17.587Z,101383.56
2023-02-22T09:14:44.057Z,101384.44
2023-02-22T09:17:10.489Z,101386.00
2023-02-22T09:19:36.967Z,101378.13
2023-02-22T09:22:03.456Z,101373.72
2023-02-22T09:24:30.410Z,101378.78
2023-02-22T09:26:56.910Z,101374.31
2023-02-22T09:29:25.889Z,101388.00
2023-02-22T09:31:54.326Z,101380.16
2023-02-22T09:34:29.545Z,101377.56
2023-02-22T09:36:57.744Z,101382.66
2023-02-22T09:39:24.494Z,101383.47
2023-02-22T09:41:59.682Z,101378.16
2023-02-22T09:44:55.817Z,101365.13
2023-02-22T09:47:32.500Z,101370.22
2023-02-22T09:50:22.640Z,101363.22
2023-02-22T09:53:18.176Z,101361.44
2023-02-22T09:55:49.743Z,101351.69
2023-02-22T09:58:27.281Z,101337.63
2023-02-22T10:01:05.104Z,101334.03
2023-02-22T10:03:46.637Z,101332.94
2023-02-22T10:06:16.277Z,101343.69
2023-02-22T10:08:45.083Z,101338.31
2023-02-22T10:11:29.861Z,101327.69
2023-02-22T10:14:08.562Z,101328.25
2023-02-22T10:16:57.091Z,101321.22
2023-02-22T10:19:47.602Z,101327.19
2023-02-22T10:22:19.123Z,101317.50
2023-02-22T10:25:00.618Z,101329.25
2023-02-22T10:27:53.211Z,101327.06
2023-02-22T10:30:42.312Z,101330.94
2023-02-22T10:33:22.544Z,101321.81
2023-02-22T10:35:51.641Z,101331.28
2023-02-22T10:38:30.388Z,101324.31
2023-02-22T10:41:08.935Z,101321.78
2023-02-22T10:43:43.008Z,101317.25
2023-02-22T10:46:15.291Z,101320.44
2023-02-22T10:48:44.765Z,101315.19
2023-02-22T10:51:11.667Z,101325.53
2023-02-22T10:53:41.069Z,101317.75
2023-02-22T10:56:22.295Z,101325.34
2023-02-22T10:59:02.347Z,101320.81
2023-02-22T11:01:31.814Z,101318.19
2023-02-22T11:04:10.818Z,101313.84
2023-02-22T11:06:38.529Z,101315.50
2023-02-22T11:09:10.397Z,101308.47
2023-02-22T11:11:38.239Z,101309.25
2023-02-22T11:14:06.793Z,101302.28
2023-02-22T11:16:36.448Z,101303.84
2023-02-22T11:19:30.907Z,101301.97
2023-02-22T11:22:10.035Z,101300.19
2023-02-22T11:27:28.691Z,101294.09
2023-02-22T11:30:07.689Z,101298.34
2023-02-22T11:32:36.574Z,101291.16
2023-02-22T11:35:28.150Z,101293.50
2023-02-22T11:38:10.536Z,101290.53
2023-02-22T11:40:36.970Z,101294.59
2023-02-22T11:43:16.002Z,101288.44
2023-02-22T11:46:08.418Z,101289.88
2023-02-22T11:48:39.542Z,101276.75
2023-02-22T11:51:14.088Z,101280.19
2023-02-22T11:53:55.112Z,101277.72
2023-02-22T11:56:38.359Z,101268.38
2023-02-22T11:59:23.403Z,101267.44
2023-02-22T12:02:08.622Z,101261.53
2023-02-22T12:04:53.219Z,101255.63
2023-02-22T12:07:19.746Z,101258.28
2023-02-22T12:09:55.165Z,101259.19
2023-02-22T12:12:36.891Z,101262.69
2023-02-22T12:15:31.821Z,101254.97
2023-02-22T12:18:18.537Z,101256.72
2023-02-22T12:20:56.837Z,101260.03
2023-02-22T12:23:40.856Z,101261.66
2023-02-22T12:26:28.164Z,101256.28
2023-02-22T12:29:06.316Z,101255.25
2023-02-22T12:31:58.147Z,101259.38
2023-02-22T12:34:27.704Z,101258.25
2023-02-22T12:37:05.902Z,101257.25
2023-02-22T12:40:08.470Z,101242.34
2023-02-22T12:42:47.034Z,101242.03
2023-02-22T12:45:27.146Z,101243.31
2023-02-22T12:48:17.368Z,101243.91
2023-02-22T12:50:47.456Z,101233.97
2023-02-22T12:53:21.245Z,101236.31
2023-02-22T12:55:56.602Z,101239.47
2023-02-22T12:58:49.424Z,101231.59
2023-02-22T13:01:24.110Z,101228.94
2023-02-22T13:03:50.606Z,101236.59
2023-02-22T13:06:17.524Z,101227.75
2023-02-22T13:09:24.506Z,101231.97
2023-02-22T13:12:16.730Z,101229.53
2023-02-22T13:15:05.178Z,101234.72
2023-02-22T13:17:43.064Z,101233.72
2023-02-22T13:20:30.660Z,101232.03
2023-02-22T13:23:13.902Z,101227.69
2023-02-22T13:25:45.758Z,101233.81
2023-02-22T13:28:32.148Z,101226.84
2023-02-22T13:31:21.059Z,101224.09
2023-02-22T13:34:06.411Z,101225.72
2023-02-22T13:36:41.845Z,101226.50
2023-02-22T13:39:17.747Z,101229.09
2023-02-22T13:41:51.389Z,101227.19
2023-02-22T13:44:38.454Z,101217.63
2023-02-22T13:47:23.791Z,101228.13
2023-02-22T13:50:15.727Z,101225.50
2023-02-22T13:52:43.640Z,101216.03
2023-02-22T13:55:36.738Z,101223.75
2023-02-22T13:58:06.515Z,101225.50
2023-02-22T14:00:41.259Z,101229.03
2023-02-22T14:03:29.974Z,101227.41
2023-02-22T14:06:00.917Z,101233.31
2023-02-22T14:08:31.339Z,101228.97
2023-02-22T14:10:59.551Z,101227.28
2023-02-22T14:13:32.233Z,101229.78
2023-02-22T14:16:02.485Z,101231.50
2023-02-22T14:18:42.522Z,101235.00
2023-02-22T14:21:12.046Z,101239.31
2023-02-22T14:23:42.650Z,101241.22
2023-02-22T14:26:22.732Z,101239.59
2023-02-22T14:28:55.247Z,101236.13
2023-02-22T14:31:35.613Z,101235.31
2023-02-22T14:34:17.565Z,101235.31
2023-02-22T14:37:01.159Z,101245.72
2023-02-22T14:39:51.407Z,101248.31
2023-02-22T14:42:27.259Z,101247.38
2023-02-22T14:45:21.752Z,101248.94
2023-02-22T14:48:13.627Z,101250.47
2023-02-22T14:50:40.045Z,101246.06
2023-02-22T14:53:12.705Z,101247.69
2023-02-22T14:55:47.619Z,101250.34
2023-02-22T14:58:26.205Z,101247.81
2023-02-22T15:00:56.764Z,101244.38
2023-02-22T15:03:38.253Z,101246.13
2023-02-22T15:06:06.033Z,101246.13
2023-02-22T15:08:34.234Z,101243.50
2023-02-22T15:11:02.371Z,101246.13
2023-02-22T15:13:34.247Z,101243.66
2023-02-22T15:16:04.306Z,101237.59
2023-02-22T15:18:57.983Z,101236.75
2023-02-22T15:21:27.617Z,101236.00
2023-02-22T15:24:01.687Z,101233.53
2023-02-22T15:26:38.848Z,101234.44
2023-02-22T15:29:13.182Z,101232.69
2023-02-22T15:31:41.395Z,101243.84
2023-02-22T15:34:16.883Z,101242.22
2023-02-22T15:36:45.215Z,101239.75
2023-02-22T15:39:44.255Z,101242.44
2023-02-22T15:42:21.079Z,101241.59
2023-02-22T15:44:49.693Z,101252.94
2023-02-22T15:47:21.775Z,101252.06
2023-02-22T15:50:21.203Z,101246.94
2023-02-22T15:53:02.746Z,101247.06
2023-02-22T15:55:38.384Z,101267.97
2023-02-22T15:58:23.935Z,101263.66
2023-02-22T16:01:03.152Z,101267.22
2023-02-22T16:03:48.537Z,101262.94
2023-02-22T16:06:30.479Z,101254.38
2023-02-22T16:09:00.198Z,101259.63
2023-02-22T16:11:40.813Z,101255.34
2023-02-22T16:14:31.138Z,101265.81
2023-02-22T16:17:30.726Z,101267.69
2023-02-22T16:19:59.212Z,101270.41
2023-02-22T16:22:33.808Z,101275.69
2023-02-22T16:25:27.449Z,101271.59
2023-02-22T16:27:58.027Z,101276.06
2023-02-22T16:30:35.150Z,101278.09
2023-02-22T16:33:05.772Z,101292.97
2023-02-22T16:35:35.438Z,101285.25
2023-02-22T16:38:03.352Z,101292.34
2023-02-22T16:40:52.237Z,101291.66
2023-02-22T16:43:22.575Z,101303.81
2023-02-22T16:45:49.099Z,101301.41
2023-02-22T16:48:19.622Z,101298.94
2023-02-22T16:50:47.965Z,101302.53
2023-02-22T16:53:20.003Z,101295.66
2023-02-22T16:55:51.830Z,101295.75
2023-02-22T16:58:19.265Z,101298.38
2023-02-22T17:00:45.781Z,101289.81
2023-02-22T17:03:18.299Z,101302.00
2023-02-22T17:05:44.980Z,101302.13
2023-02-22T17:08:11.624Z,101297.91
2023-02-22T17:10:38.147Z,101305.78
2023-02-22T17:13:21.888Z,101309.28
2023-02-22T17:15:50.116Z,101307.56
2023-02-22T17:18:22.664Z,101315.34
2023-02-22T17:20:54.393Z,101318.88
2023-02-22T17:23:22.451Z,101317.06
2023-02-22T17:25:53.575Z,101324.88
2023-02-22T17:28:21.223Z,101319.66
2023-02-22T17:30:49.006Z,101323.13
2023-02-22T17:33:19.085Z,101328.34
2023-02-22T17:35:47.027Z,101325.72
2023-02-22T17:38:18.482Z,101327.47
2023-02-22T17:40:51.970Z,101323.94
2023-02-22T17:43:19.411Z,101329.16
2023-02-22T17:45:46.209Z,101336.09
2023-02-22T17:48:13.905Z,101331.75
2023-02-22T17:50:42.144Z,101340.31
2023-02-22T17:53:10.955Z,101340.31
2023-02-22T17:55:40.571Z,101332.50
2023-02-22T17:58:14.497Z,101331.66
2023-02-22T18:00:44.776Z,101327.47
2023-02-22T18:03:21.202Z,101337.84
2023-02-22T18:05:50.037Z,101341.28
2023-02-22T18:08:16.592Z,101343.09
2023-02-22T18:10:44.109Z,101349.13
2023-02-22T18:13:16.695Z,101346.53
2023-02-22T18:15:43.585Z,101334.38
2023-02-22T18:18:10.102Z,101340.50
2023-02-22T18:20:39.192Z,101350.88
2023-02-22T18:23:07.552Z,101344.88
2023-02-22T18:25:35.818Z,101351.72
2023-02-22T18:28:06.824Z,101352.66
2023-02-22T18:30:35.925Z,101355.16
2023-02-22T18:33:03.693Z,101358.63
2023-02-22T18:35:30.490Z,101348.25
2023-02-22T18:37:56.918Z,101351.69
2023-02-22T18:40:23.843Z,101352.53
2023-02-22T18:42:50.297Z,101349.97
2023-02-22T18:45:17.198Z,101355.16
2023-02-22T18:47:45.541Z,101355.16
2023-02-22T18:50:13.189Z,101350.88
2023-02-22T18:52:46.340Z,101349.13
2023-02-22T18:55:18.292Z,101353.47
2023-02-22T18:57:45.852Z,101344.00
2023-02-22T19:00:15.891Z,101346.53
2023-02-22T19:02:45.562Z,101350.84
2023-02-22T19:05:17.289Z,101354.41
2023-02-22T19:07:45.096Z,101350.09
2023-02-22T19:10:11.651Z,101351.84
2023-02-22T19:12:38.248Z,101347.50
2023-02-22T19:15:04.905Z,101348.41
2023-02-22T19:17:32.576Z,101352.75
2023-02-22T19:19:59.081Z,101349.31
2023-02-22T19:22:32.754Z,101350.34
2023-02-22T19:25:01.227Z,101344.44
2023-02-22T19:27:31.348Z,101348.75
2023-02-22T19:29:58.594Z,101350.47
2023-02-22T19:32:25.523Z,101360.00
2023-02-22T19:34:53.135Z,101359.22
2023-02-22T19:37:22.727Z,101360.06
2023-02-22T19:39:49.232Z,101357.53
2023-02-22T19:42:15.646Z,101364.47
2023-02-22T19:44:42.172Z,101356.69
2023-02-22T19:47:10.018Z,101370.56
2023-02-22T19:49:37.742Z,101366.28
2023-02-22T19:52:06.532Z,101374.00
2023-02-22T19:54:33.536Z,101371.47
2023-02-22T19:57:00.602Z,101373.25
2023-02-22T19:59:27.402Z,101381.06
2023-02-22T20:01:54.829Z,101387.16
2023-02-22T20:04:21.841Z,101387.16
2023-02-22T20:06:54.739Z,101388.94
2023-02-22T20:09:29.731Z,101389.88
2023-02-22T20:11:56.529Z,101387.38
2023-02-22T20:14:26.198Z,101390.91
2023-02-22T20:16:53.796Z,101395.28
2023-02-22T20:19:22.460Z,101399.59
2023-02-22T20:21:49.519Z,101400.44
2023-02-22T20:24:18.266Z,101396.13
2023-02-22T20:26:46.414Z,101399.72
2023-02-22T20:29:13.991Z,101406.63
2023-02-22T20:31:42.064Z,101403.97
2023-02-22T20:34:09.987Z,101402.31
2023-02-22T20:36:38.637Z,101402.31
2023-02-22T20:39:07.508Z,101410.09
2023-02-22T20:41:35.535Z,101410.94
2023-02-22T20:44:03.290Z,101408.34
2023-02-22T20:46:37.348Z,101410.94
2023-02-22T20:49:07.448Z,101417.00
2023-02-22T20:51:34.983Z,101412.69
2023-02-22T20:54:01.630Z,101402.31
2023-02-22T20:56:30.340Z,101401.44
2023-02-22T20:58:58.354Z,101403.97
2023-02-22T21:01:25.651Z,101404.91
2023-02-22T21:03:52.157Z,101420.47
2023-02-22T21:06:21.450Z,101417.03
2023-02-22T21:08:53.800Z,101417.16
2023-02-22T21:11:21.482Z,101413.78
2023-02-22T21:13:48.168Z,101416.38
2023-02-22T21:16:27.240Z,101415.47
2023-02-22T21:18:56.392Z,101426.69
2023-02-22T21:21:23.540Z,101419.00
2023-02-22T21:23:52.379Z,101423.41
2023-02-22T21:26:23.628Z,101418.97
2023-02-22T21:28:52.072Z,101417.16
2023-02-22T21:31:21.798Z,101422.41
2023-02-22T21:33:50.916Z,101416.38
2023-02-22T21:36:18.313Z,101415.47
2023-02-22T21:38:48.898Z,101411.19
2023-02-22T21:41:17.386Z,101411.22
2023-02-22T21:43:48.419Z,101414.66
2023-02-22T21:46:14.881Z,101419.84
2023-02-22T21:48:45.087Z,101418.16
2023-02-22T21:51:14.024Z,101417.38
2023-02-22T21:53:48.632Z,101418.28
2023-02-22T21:56:23.032Z,101419.19
2023-02-22T21:59:14.122Z,101420.03
2023-02-22T22:01:49.901Z,101418.34
2023-02-22T22:04:19.544Z,101427.00
2023-02-22T22:06:48.963Z,101420.06
2023-02-22T22:09:18.320Z,101418.44
2023-02-22T22:11:53.485Z,101423.66
2023-02-22T22:14:23.158Z,101421.09
2023-02-22T22:16:51.924Z,101422.03
2023-02-22T22:19:18.442Z,101418.59
2023-02-22T22:21:46.678Z,101420.34
2023-02-22T22:24:13.375Z,101421.19
2023-02-22T22:26:40.093Z,101417.75
2023-02-22T22:29:09.915Z,101418.59
2023-02-22T22:31:36.493Z,101420.34
2023-02-22T22:34:03.036Z,101416.94
2023-02-22T22:36:29.528Z,101414.31
2023-02-22T22:38:58.821Z,101414.22
2023-02-22T22:41:28.101Z,101416.81
2023-02-22T22:43:55.122Z,101422.03
2023-02-22T22:46:21.927Z,101418.59
2023-02-22T22:48:48.599Z,101420.34
2023-02-22T22:51:20.894Z,101423.00
2023-02-22T22:53:49.497Z,101421.25
2023-02-22T22:56:19.197Z,101416.09
2023-02-22T22:58:50.791Z,101421.25
2023-02-22T23:01:19.562Z,101414.50
2023-02-22T23:03:56.528Z,101408.44
2023-02-22T23:06:27.214Z,101423.06
2023-02-22T23:08:59.933Z,101416.94
2023-02-22T23:11:33.564Z,101414.31
2023-02-22T23:14:03.065Z,101421.31
2023-02-22T23:16:29.525Z,101418.88
2023-02-22T23:18:55.943Z,101423.16
2023-02-22T23:21:24.384Z,101419.72
2023-02-22T23:23:59.708Z,101431.00
2023-02-22T23:26:26.884Z,101425.81
2023-02-22T23:28:56.289Z,101422.28
2023-02-22T23:31:23.761Z,101436.13
2023-02-22T23:33:50.728Z,101430.94
2023-02-22T23:36:18.701Z,101429.25
2023-02-22T23:38:45.859Z,101439.63
2023-02-22T23:41:16.646Z,101441.44
2023-02-22T23:43:44.898Z,101438.91
2023-02-22T23:46:18.576Z,101439.81
2023-02-22T23:48:54.407Z,101441.53
2023-02-22T23:51:26.394Z,101440.69
2023-02-22T23:53:57.204Z,101440.66
2023-02-22T23:56:27.368Z,101447.59
2023-02-22T23:58:57.268Z,101438.09
